sensor_id;sensor_type;location;lat;lon;timestamp;temperature;humidity
20422;DHT22;10370;53.102;18.034;2023-08-17T00:05:18;19.80;99.90
20422;DHT22;10370;53.102;18.034;2023-08-17T00:10:40;19.80;99.90
20422;DHT22;10370;53.102;18.034;2023-08-17T00:16:03;19.70;99.90
20422;DHT22;10370;53.102;18.034;2023-08-17T00:21:26;19.70;99.90
20422;DHT22;10370;53.102;18.034;2023-08-17T00:26:51;19.70;99.90
20422;DHT22;10370;53.102;18.034;2023-08-17T00:32:13;19.70;99.90
20422;DHT22;10370;53.102;18.034;2023-08-17T00:37:36;19.60;99.90
20422;DHT22;10370;53.102;18.034;2023-08-17T00:43:00;19.50;99.90
20422;DHT22;10370;53.102;18.034;2023-08-17T00:48:23;19.40;99.90
20422;DHT22;10370;53.102;18.034;2023-08-17T00:53:46;19.40;99.90
20422;DHT22;10370;53.102;18.034;2023-08-17T00:59:09;19.40;99.90
20422;DHT22;10370;53.102;18.034;2023-08-17T01:04:32;19.40;99.90
20422;DHT22;10370;53.102;18.034;2023-08-17T01:09:55;19.40;99.90
20422;DHT22;10370;53.102;18.034;2023-08-17T01:15:29;19.50;99.90
20422;DHT22;10370;53.102;18.034;2023-08-17T01:20:54;19.40;99.90
20422;DHT22;10370;53.102;18.034;2023-08-17T01:26:17;19.20;99.90
20422;DHT22;10370;53.102;18.034;2023-08-17T01:31:52;19.20;99.90
20422;DHT22;10370;53.102;18.034;2023-08-17T01:37:19;19.10;99.90
20422;DHT22;10370;53.102;18.034;2023-08-17T01:42:43;18.90;99.90
20422;DHT22;10370;53.102;18.034;2023-08-17T01:48:06;18.90;99.90
20422;DHT22;10370;53.102;18.034;2023-08-17T01:53:29;19.00;99.90
20422;DHT22;10370;53.102;18.034;2023-08-17T01:58:52;18.90;99.90
20422;DHT22;10370;53.102;18.034;2023-08-17T02:04:15;18.90;99.90
20422;DHT22;10370;53.102;18.034;2023-08-17T02:09:38;19.00;99.90
20422;DHT22;10370;53.102;18.034;2023-08-17T02:15:01;19.00;99.90
20422;DHT22;10370;53.102;18.034;2023-08-17T02:20:23;18.90;99.90
20422;DHT22;10370;53.102;18.034;2023-08-17T02:25:46;19.00;99.90
20422;DHT22;10370;53.102;18.034;2023-08-17T02:31:10;19.00;99.90
20422;DHT22;10370;53.102;18.034;2023-08-17T02:36:33;19.10;99.90
20422;DHT22;10370;53.102;18.034;2023-08-17T02:41:57;19.20;99.90
20422;DHT22;10370;53.102;18.034;2023-08-17T02:47:19;19.00;99.90
20422;DHT22;10370;53.102;18.034;2023-08-17T02:52:42;19.00;99.90
20422;DHT22;10370;53.102;18.034;2023-08-17T02:58:05;19.00;99.90
20422;DHT22;10370;53.102;18.034;2023-08-17T03:03:28;18.90;99.90
20422;DHT22;10370;53.102;18.034;2023-08-17T03:08:50;18.70;99.90
20422;DHT22;10370;53.102;18.034;2023-08-17T03:14:15;18.70;99.90
20422;DHT22;10370;53.102;18.034;2023-08-17T03:19:38;18.70;99.90
20422;DHT22;10370;53.102;18.034;2023-08-17T03:25:01;18.60;99.90
20422;DHT22;10370;53.102;18.034;2023-08-17T03:30:25;18.60;99.90
20422;DHT22;10370;53.102;18.034;2023-08-17T03:35:48;18.60;99.90
20422;DHT22;10370;53.102;18.034;2023-08-17T03:41:11;18.70;99.90
20422;DHT22;10370;53.102;18.034;2023-08-17T03:46:33;18.70;99.90
20422;DHT22;10370;53.102;18.034;2023-08-17T03:51:56;18.70;99.90
20422;DHT22;10370;53.102;18.034;2023-08-17T03:57:18;18.60;99.90
20422;DHT22;10370;53.102;18.034;2023-08-17T04:02:42;18.60;99.90
20422;DHT22;10370;53.102;18.034;2023-08-17T04:08:05;18.50;99.90
20422;DHT22;10370;53.102;18.034;2023-08-17T04:13:28;18.40;99.90
20422;DHT22;10370;53.102;18.034;2023-08-17T04:18:51;18.40;99.90
20422;DHT22;10370;53.102;18.034;2023-08-17T04:24:13;18.20;99.90
20422;DHT22;10370;53.102;18.034;2023-08-17T04:29:37;18.20;99.90
20422;DHT22;10370;53.102;18.034;2023-08-17T04:35:00;18.20;99.90
20422;DHT22;10370;53.102;18.034;2023-08-17T04:40:23;18.10;99.90
20422;DHT22;10370;53.102;18.034;2023-08-17T04:45:46;17.80;99.90
20422;DHT22;10370;53.102;18.034;2023-08-17T04:51:10;17.60;99.90
20422;DHT22;10370;53.102;18.034;2023-08-17T04:56:32;17.70;99.90
20422;DHT22;10370;53.102;18.034;2023-08-17T05:01:55;17.70;99.90
20422;DHT22;10370;53.102;18.034;2023-08-17T05:07:17;18.20;99.90
20422;DHT22;10370;53.102;18.034;2023-08-17T05:12:41;18.40;99.90
20422;DHT22;10370;53.102;18.034;2023-08-17T05:18:04;18.80;99.90
20422;DHT22;10370;53.102;18.034;2023-08-17T05:23:27;18.90;99.90
20422;DHT22;10370;53.102;18.034;2023-08-17T05:28:49;18.80;99.90
20422;DHT22;10370;53.102;18.034;2023-08-17T05:34:12;18.50;99.90
20422;DHT22;10370;53.102;18.034;2023-08-17T05:39:36;18.60;99.90
20422;DHT22;10370;53.102;18.034;2023-08-17T05:45:01;18.50;99.90
20422;DHT22;10370;53.102;18.034;2023-08-17T05:50:23;18.50;99.90
20422;DHT22;10370;53.102;18.034;2023-08-17T05:55:49;18.60;99.90
20422;DHT22;10370;53.102;18.034;2023-08-17T06:01:13;18.60;99.90
20422;DHT22;10370;53.102;18.034;2023-08-17T06:06:39;18.50;99.90
20422;DHT22;10370;53.102;18.034;2023-08-17T06:12:01;18.60;99.90
20422;DHT22;10370;53.102;18.034;2023-08-17T06:17:24;18.60;99.90
20422;DHT22;10370;53.102;18.034;2023-08-17T06:22:48;18.70;99.90
20422;DHT22;10370;53.102;18.034;2023-08-17T06:28:12;18.90;99.90
20422;DHT22;10370;53.102;18.034;2023-08-17T06:33:35;18.80;99.90
20422;DHT22;10370;53.102;18.034;2023-08-17T06:38:58;18.80;99.90
20422;DHT22;10370;53.102;18.034;2023-08-17T06:44:21;19.00;99.90
20422;DHT22;10370;53.102;18.034;2023-08-17T06:49:44;19.30;99.90
20422;DHT22;10370;53.102;18.034;2023-08-17T06:55:07;19.20;99.90
20422;DHT22;10370;53.102;18.034;2023-08-17T07:00:29;19.50;99.90
20422;DHT22;10370;53.102;18.034;2023-08-17T07:05:52;19.40;99.90
20422;DHT22;10370;53.102;18.034;2023-08-17T07:11:14;19.40;99.90
20422;DHT22;10370;53.102;18.034;2023-08-17T07:16:38;19.10;99.90
20422;DHT22;10370;53.102;18.034;2023-08-17T07:22:00;19.00;99.90
20422;DHT22;10370;53.102;18.034;2023-08-17T07:27:23;19.10;99.90
20422;DHT22;10370;53.102;18.034;2023-08-17T07:32:46;19.30;99.90
20422;DHT22;10370;53.102;18.034;2023-08-17T07:38:08;19.30;99.90
20422;DHT22;10370;53.102;18.034;2023-08-17T07:43:31;19.30;99.90
20422;DHT22;10370;53.102;18.034;2023-08-17T07:48:54;19.30;99.90
20422;DHT22;10370;53.102;18.034;2023-08-17T07:54:16;19.40;99.90
20422;DHT22;10370;53.102;18.034;2023-08-17T07:59:39;19.60;99.90
20422;DHT22;10370;53.102;18.034;2023-08-17T08:05:03;19.80;99.90
20422;DHT22;10370;53.102;18.034;2023-08-17T08:10:27;20.10;99.90
20422;DHT22;10370;53.102;18.034;2023-08-17T08:15:51;20.30;99.90
20422;DHT22;10370;53.102;18.034;2023-08-17T08:21:13;20.50;99.90
20422;DHT22;10370;53.102;18.034;2023-08-17T08:26:36;20.60;99.90
20422;DHT22;10370;53.102;18.034;2023-08-17T08:31:58;20.60;99.90
20422;DHT22;10370;53.102;18.034;2023-08-17T08:37:22;20.60;99.90
20422;DHT22;10370;53.102;18.034;2023-08-17T08:42:44;20.80;99.90
20422;DHT22;10370;53.102;18.034;2023-08-17T08:48:08;20.80;99.90
20422;DHT22;10370;53.102;18.034;2023-08-17T08:53:39;21.00;99.90
20422;DHT22;10370;53.102;18.034;2023-08-17T08:59:04;21.40;99.90
20422;DHT22;10370;53.102;18.034;2023-08-17T09:04:28;21.60;99.90
20422;DHT22;10370;53.102;18.034;2023-08-17T09:09:51;21.60;99.90
20422;DHT22;10370;53.102;18.034;2023-08-17T09:15:15;21.80;99.90
20422;DHT22;10370;53.102;18.034;2023-08-17T09:20:45;21.90;99.90
20422;DHT22;10370;53.102;18.034;2023-08-17T09:26:09;21.70;99.90
20422;DHT22;10370;53.102;18.034;2023-08-17T09:31:32;21.60;99.90
20422;DHT22;10370;53.102;18.034;2023-08-17T09:37:11;21.30;99.90
20422;DHT22;10370;53.102;18.034;2023-08-17T09:42:47;20.90;99.90
20422;DHT22;10370;53.102;18.034;2023-08-17T09:48:10;19.80;99.90
20422;DHT22;10370;53.102;18.034;2023-08-17T09:53:36;19.70;99.90
20422;DHT22;10370;53.102;18.034;2023-08-17T09:59:00;20.30;99.90
20422;DHT22;10370;53.102;18.034;2023-08-17T10:04:24;20.70;99.90
20422;DHT22;10370;53.102;18.034;2023-08-17T10:09:56;21.00;99.90
20422;DHT22;10370;53.102;18.034;2023-08-17T10:15:22;21.60;99.90
20422;DHT22;10370;53.102;18.034;2023-08-17T10:21:02;21.80;99.90
20422;DHT22;10370;53.102;18.034;2023-08-17T10:26:28;22.10;99.90
20422;DHT22;10370;53.102;18.034;2023-08-17T10:31:52;22.40;99.90
20422;DHT22;10370;53.102;18.034;2023-08-17T10:37:18;22.60;99.90
20422;DHT22;10370;53.102;18.034;2023-08-17T10:42:42;22.60;99.90
20422;DHT22;10370;53.102;18.034;2023-08-17T10:53:35;23.10;99.90
20422;DHT22;10370;53.102;18.034;2023-08-17T10:59:24;23.60;99.90
20422;DHT22;10370;53.102;18.034;2023-08-17T11:04:53;23.70;99.90
20422;DHT22;10370;53.102;18.034;2023-08-17T11:15:42;23.70;99.90
20422;DHT22;10370;53.102;18.034;2023-08-17T11:21:07;24.00;99.90
20422;DHT22;10370;53.102;18.034;2023-08-17T11:26:33;24.10;99.90
20422;DHT22;10370;53.102;18.034;2023-08-17T11:32:31;24.20;99.90
20422;DHT22;10370;53.102;18.034;2023-08-17T11:37:54;24.40;99.90
20422;DHT22;10370;53.102;18.034;2023-08-17T11:43:17;24.60;99.90
20422;DHT22;10370;53.102;18.034;2023-08-17T11:48:43;24.60;99.90
20422;DHT22;10370;53.102;18.034;2023-08-17T11:54:06;24.60;99.90
20422;DHT22;10370;53.102;18.034;2023-08-17T11:59:30;25.00;99.90
20422;DHT22;10370;53.102;18.034;2023-08-17T12:04:56;25.10;99.90
20422;DHT22;10370;53.102;18.034;2023-08-17T12:10:19;25.30;99.90
20422;DHT22;10370;53.102;18.034;2023-08-17T12:15:42;25.10;99.90
20422;DHT22;10370;53.102;18.034;2023-08-17T12:21:09;25.10;99.90
20422;DHT22;10370;53.102;18.034;2023-08-17T12:26:32;25.20;99.90
20422;DHT22;10370;53.102;18.034;2023-08-17T12:31:57;25.40;99.90
20422;DHT22;10370;53.102;18.034;2023-08-17T12:37:21;25.60;99.90
20422;DHT22;10370;53.102;18.034;2023-08-17T12:42:43;25.60;99.90
20422;DHT22;10370;53.102;18.034;2023-08-17T12:48:06;25.80;99.90
20422;DHT22;10370;53.102;18.034;2023-08-17T12:53:28;26.10;99.90
20422;DHT22;10370;53.102;18.034;2023-08-17T12:58:54;26.00;99.90
20422;DHT22;10370;53.102;18.034;2023-08-17T13:04:18;25.90;99.90
20422;DHT22;10370;53.102;18.034;2023-08-17T13:09:40;26.10;99.90
20422;DHT22;10370;53.102;18.034;2023-08-17T13:15:03;26.10;99.90
20422;DHT22;10370;53.102;18.034;2023-08-17T13:20:27;26.20;99.90
20422;DHT22;10370;53.102;18.034;2023-08-17T13:25:50;26.40;99.90
20422;DHT22;10370;53.102;18.034;2023-08-17T13:31:12;26.40;99.90
20422;DHT22;10370;53.102;18.034;2023-08-17T13:36:45;26.50;99.90
20422;DHT22;10370;53.102;18.034;2023-08-17T13:42:07;26.50;99.90
20422;DHT22;10370;53.102;18.034;2023-08-17T13:47:32;26.70;99.90
20422;DHT22;10370;53.102;18.034;2023-08-17T13:52:57;26.80;99.90
20422;DHT22;10370;53.102;18.034;2023-08-17T13:58:24;26.80;99.90
20422;DHT22;10370;53.102;18.034;2023-08-17T14:03:47;26.80;99.90
20422;DHT22;10370;53.102;18.034;2023-08-17T14:09:10;26.80;99.90
20422;DHT22;10370;53.102;18.034;2023-08-17T14:14:33;26.90;99.90
20422;DHT22;10370;53.102;18.034;2023-08-17T14:19:56;27.00;99.90
20422;DHT22;10370;53.102;18.034;2023-08-17T14:25:19;27.00;99.90
20422;DHT22;10370;53.102;18.034;2023-08-17T14:30:42;27.00;99.90
20422;DHT22;10370;53.102;18.034;2023-08-17T14:36:05;27.10;99.90
20422;DHT22;10370;53.102;18.034;2023-08-17T14:41:28;27.10;99.90
20422;DHT22;10370;53.102;18.034;2023-08-17T14:46:54;27.20;99.90
20422;DHT22;10370;53.102;18.034;2023-08-17T14:52:17;27.20;99.90
20422;DHT22;10370;53.102;18.034;2023-08-17T14:57:40;27.20;99.90
20422;DHT22;10370;53.102;18.034;2023-08-17T15:03:02;27.10;99.90
20422;DHT22;10370;53.102;18.034;2023-08-17T15:08:25;27.10;99.90
20422;DHT22;10370;53.102;18.034;2023-08-17T15:13:48;27.10;99.90
20422;DHT22;10370;53.102;18.034;2023-08-17T15:19:11;27.10;99.90
20422;DHT22;10370;53.102;18.034;2023-08-17T15:24:36;27.00;99.90
20422;DHT22;10370;53.102;18.034;2023-08-17T15:29:59;27.00;99.90
20422;DHT22;10370;53.102;18.034;2023-08-17T15:35:22;27.10;99.90
20422;DHT22;10370;53.102;18.034;2023-08-17T15:40:44;27.00;99.90
20422;DHT22;10370;53.102;18.034;2023-08-17T15:46:08;27.00;99.90
20422;DHT22;10370;53.102;18.034;2023-08-17T15:51:30;27.00;99.90
20422;DHT22;10370;53.102;18.034;2023-08-17T15:56:53;27.00;99.90
20422;DHT22;10370;53.102;18.034;2023-08-17T16:02:16;27.00;99.90
20422;DHT22;10370;53.102;18.034;2023-08-17T16:07:42;27.00;99.90
20422;DHT22;10370;53.102;18.034;2023-08-17T16:13:06;27.00;99.90
20422;DHT22;10370;53.102;18.034;2023-08-17T16:18:30;27.00;99.90
20422;DHT22;10370;53.102;18.034;2023-08-17T16:23:54;27.00;99.90
20422;DHT22;10370;53.102;18.034;2023-08-17T16:29:17;27.00;99.90
20422;DHT22;10370;53.102;18.034;2023-08-17T16:34:40;26.90;99.90
20422;DHT22;10370;53.102;18.034;2023-08-17T16:40:05;26.90;99.90
20422;DHT22;10370;53.102;18.034;2023-08-17T16:45:28;26.80;99.90
20422;DHT22;10370;53.102;18.034;2023-08-17T16:50:53;26.80;99.90
20422;DHT22;10370;53.102;18.034;2023-08-17T16:56:16;26.70;99.90
20422;DHT22;10370;53.102;18.034;2023-08-17T17:01:39;26.60;99.90
20422;DHT22;10370;53.102;18.034;2023-08-17T17:07:03;26.50;99.90
20422;DHT22;10370;53.102;18.034;2023-08-17T17:12:27;26.40;99.90
20422;DHT22;10370;53.102;18.034;2023-08-17T17:17:50;26.30;99.90
20422;DHT22;10370;53.102;18.034;2023-08-17T17:23:13;26.20;99.90
20422;DHT22;10370;53.102;18.034;2023-08-17T17:28:36;26.00;99.90
20422;DHT22;10370;53.102;18.034;2023-08-17T17:33:59;25.90;99.90
20422;DHT22;10370;53.102;18.034;2023-08-17T17:39:23;25.80;99.90
20422;DHT22;10370;53.102;18.034;2023-08-17T17:44:46;25.60;99.90
20422;DHT22;10370;53.102;18.034;2023-08-17T17:50:09;25.50;99.90
20422;DHT22;10370;53.102;18.034;2023-08-17T17:55:32;25.40;99.90
20422;DHT22;10370;53.102;18.034;2023-08-17T18:00:56;25.20;99.90
20422;DHT22;10370;53.102;18.034;2023-08-17T18:06:19;25.00;99.90
20422;DHT22;10370;53.102;18.034;2023-08-17T18:11:43;24.90;99.90
20422;DHT22;10370;53.102;18.034;2023-08-17T18:17:05;24.80;99.90
20422;DHT22;10370;53.102;18.034;2023-08-17T18:22:28;24.60;99.90
20422;DHT22;10370;53.102;18.034;2023-08-17T18:27:51;24.50;99.90
20422;DHT22;10370;53.102;18.034;2023-08-17T18:33:14;24.30;99.90
20422;DHT22;10370;53.102;18.034;2023-08-17T18:38:38;24.10;99.90
20422;DHT22;10370;53.102;18.034;2023-08-17T18:44:01;24.00;99.90
20422;DHT22;10370;53.102;18.034;2023-08-17T18:49:24;23.80;99.90
20422;DHT22;10370;53.102;18.034;2023-08-17T18:55:02;23.70;99.90
20422;DHT22;10370;53.102;18.034;2023-08-17T19:00:25;23.60;99.90
20422;DHT22;10370;53.102;18.034;2023-08-17T19:05:48;23.40;99.90
20422;DHT22;10370;53.102;18.034;2023-08-17T19:11:11;23.20;99.90
20422;DHT22;10370;53.102;18.034;2023-08-17T19:16:34;23.10;99.90
20422;DHT22;10370;53.102;18.034;2023-08-17T19:21:58;22.90;99.90
20422;DHT22;10370;53.102;18.034;2023-08-17T19:27:24;22.90;99.90
20422;DHT22;10370;53.102;18.034;2023-08-17T19:32:47;22.80;99.90
20422;DHT22;10370;53.102;18.034;2023-08-17T19:38:09;22.60;99.90
20422;DHT22;10370;53.102;18.034;2023-08-17T19:43:33;22.60;99.90
20422;DHT22;10370;53.102;18.034;2023-08-17T19:48:56;22.50;99.90
20422;DHT22;10370;53.102;18.034;2023-08-17T19:54:19;22.30;99.90
20422;DHT22;10370;53.102;18.034;2023-08-17T19:59:41;22.30;99.90
20422;DHT22;10370;53.102;18.034;2023-08-17T20:05:05;22.20;99.90
20422;DHT22;10370;53.102;18.034;2023-08-17T20:10:29;22.10;99.90
20422;DHT22;10370;53.102;18.034;2023-08-17T20:15:56;22.00;99.90
20422;DHT22;10370;53.102;18.034;2023-08-17T20:21:18;21.80;99.90
20422;DHT22;10370;53.102;18.034;2023-08-17T20:26:41;21.70;99.90
20422;DHT22;10370;53.102;18.034;2023-08-17T20:32:04;21.70;99.90
20422;DHT22;10370;53.102;18.034;2023-08-17T20:37:27;21.60;99.90
20422;DHT22;10370;53.102;18.034;2023-08-17T20:42:50;21.50;99.90
20422;DHT22;10370;53.102;18.034;2023-08-17T20:48:13;21.30;99.90
20422;DHT22;10370;53.102;18.034;2023-08-17T20:53:36;21.20;99.90
20422;DHT22;10370;53.102;18.034;2023-08-17T20:58:59;21.20;99.90
20422;DHT22;10370;53.102;18.034;2023-08-17T21:04:21;21.20;99.90
20422;DHT22;10370;53.102;18.034;2023-08-17T21:09:44;21.00;99.90
20422;DHT22;10370;53.102;18.034;2023-08-17T21:15:07;21.10;99.90
20422;DHT22;10370;53.102;18.034;2023-08-17T21:20:30;20.90;99.90
20422;DHT22;10370;53.102;18.034;2023-08-17T21:25:56;20.90;99.90
20422;DHT22;10370;53.102;18.034;2023-08-17T21:31:18;21.00;99.90
20422;DHT22;10370;53.102;18.034;2023-08-17T21:36:43;20.80;99.90
20422;DHT22;10370;53.102;18.034;2023-08-17T21:42:06;20.90;99.90
20422;DHT22;10370;53.102;18.034;2023-08-17T21:47:28;20.80;99.90
20422;DHT22;10370;53.102;18.034;2023-08-17T21:52:51;20.80;99.90
20422;DHT22;10370;53.102;18.034;2023-08-17T21:58:15;20.80;99.90
20422;DHT22;10370;53.102;18.034;2023-08-17T22:03:37;20.80;99.90
20422;DHT22;10370;53.102;18.034;2023-08-17T22:09:00;20.70;99.90
20422;DHT22;10370;53.102;18.034;2023-08-17T22:14:22;20.70;99.90
20422;DHT22;10370;53.102;18.034;2023-08-17T22:19:45;20.70;99.90
20422;DHT22;10370;53.102;18.034;2023-08-17T22:25:09;20.70;99.90
20422;DHT22;10370;53.102;18.034;2023-08-17T22:30:32;20.60;99.90
20422;DHT22;10370;53.102;18.034;2023-08-17T22:35:55;20.60;99.90
20422;DHT22;10370;53.102;18.034;2023-08-17T22:41:18;20.60;99.90
20422;DHT22;10370;53.102;18.034;2023-08-17T22:46:41;20.50;99.90
20422;DHT22;10370;53.102;18.034;2023-08-17T22:52:03;20.40;99.90
20422;DHT22;10370;53.102;18.034;2023-08-17T22:57:27;20.30;99.90
20422;DHT22;10370;53.102;18.034;2023-08-17T23:02:56;20.30;99.90
20422;DHT22;10370;53.102;18.034;2023-08-17T23:08:18;20.30;99.90
20422;DHT22;10370;53.102;18.034;2023-08-17T23:13:41;20.30;99.90
20422;DHT22;10370;53.102;18.034;2023-08-17T23:19:04;20.40;99.90
20422;DHT22;10370;53.102;18.034;2023-08-17T23:24:26;20.30;99.90
20422;DHT22;10370;53.102;18.034;2023-08-17T23:29:49;20.20;99.90
20422;DHT22;10370;53.102;18.034;2023-08-17T23:35:12;20.20;99.90
20422;DHT22;10370;53.102;18.034;2023-08-17T23:40:34;20.20;99.90
20422;DHT22;10370;53.102;18.034;2023-08-17T23:45:57;20.20;99.90
20422;DHT22;10370;53.102;18.034;2023-08-17T23:51:20;20.30;99.90
20422;DHT22;10370;53.102;18.034;2023-08-17T23:56:43;20.20;99.90
